Terminal Aerodrome Forecast
Issued by NWS

Home | Current Version | Previous Version | Text Only | Print | Product List | Glossary On
Versions: 1 2 3 4 5 6 7 8 9 10 11 12
000
FTUS46 KSGX 190520
TAFSNA
TAF
KSNA 190520Z 1906/2006 VRB04KT P6SM FEW010
     FM190900 VRB03KT P6SM BKN010
     FM191600 VRB04KT P6SM SCT015
     FM191900 22008KT P6SM FEW200
     FM200200 VRB04KT P6SM SCT020
     FM200500 VRB03KT P6SM OVC020=

USA.gov is the U.S. government's official web portal to all federal, state and local government web resources and services.